Time;durP1;ratioP1;P1;durP2;ratioP2;P2;SDS_P1;SDS_P2;PMS_P1;PMS_P2;Temp;Humidity;BMP_temperature;BMP_pressure;BME280_temperature;BME280_humidity;BME280_pressure;Samples;Min_cycle;Max_cycle;Signal;HPM_P1;HPM_P2
2021/07/06 00:01:53;;;;;;;6.65;6.05;;;25.10;72.60;;;;;;5052562;28;20035;-73
2021/07/06 00:04:19;;;;;;;8.30;5.55;;;25.00;72.60;;;;;;5053791;28;20082;-73
2021/07/06 00:06:45;;;;;;;9.80;5.70;;;25.00;72.60;;;;;;5056097;28;20387;-73
2021/07/06 00:09:11;;;;;;;8.27;5.75;;;25.00;72.80;;;;;;5056479;28;20021;-73
2021/07/06 00:11:38;;;;;;;6.25;5.63;;;25.00;72.90;;;;;;5071833;28;20025;-73
2021/07/06 00:14:03;;;;;;;7.03;5.68;;;25.00;72.80;;;;;;5056782;28;20033;-73
2021/07/06 00:16:29;;;;;;;6.10;5.47;;;25.00;72.90;;;;;;5056648;28;20051;-73
2021/07/06 00:18:55;;;;;;;6.70;5.95;;;25.00;72.90;;;;;;5056276;28;20080;-73
2021/07/06 00:21:21;;;;;;;6.95;5.65;;;25.00;72.90;;;;;;5056402;28;20478;-73
2021/07/06 00:23:47;;;;;;;7.30;5.63;;;25.10;72.80;;;;;;5056159;28;20480;-73
2021/07/06 00:26:13;;;;;;;6.60;5.88;;;25.00;72.70;;;;;;5056628;28;20104;-73
2021/07/06 00:28:40;;;;;;;6.78;6.07;;;25.00;72.70;;;;;;5055828;28;20483;-73
2021/07/06 00:31:06;;;;;;;5.80;5.10;;;25.00;72.80;;;;;;5056277;28;20108;-73
2021/07/06 00:33:32;;;;;;;6.60;5.90;;;25.00;72.80;;;;;;5056384;28;20175;-73
2021/07/06 00:35:59;;;;;;;9.43;5.68;;;25.00;72.90;;;;;;5055913;28;20025;-73
2021/07/06 00:38:29;;;;;;;6.70;5.55;;;25.00;72.90;;;;;;5055876;28;20032;-73
2021/07/06 00:40:56;;;;;;;7.25;6.45;;;25.00;72.90;;;;;;5055816;28;20360;-73
2021/07/06 00:43:22;;;;;;;6.32;5.32;;;25.00;72.90;;;;;;5071232;28;20116;-73
2021/07/06 00:45:50;;;;;;;7.13;5.85;;;25.00;72.90;;;;;;5056036;28;20033;-73
2021/07/06 00:48:16;;;;;;;8.25;5.57;;;25.10;73.00;;;;;;5055715;28;20032;-73
2021/07/06 00:50:42;;;;;;;7.30;6.60;;;25.00;72.90;;;;;;5055587;28;20036;-74
2021/07/06 00:53:08;;;;;;;9.52;6.03;;;25.00;72.90;;;;;;5055787;28;20034;-73
2021/07/06 00:55:33;;;;;;;7.03;6.15;;;25.10;73.00;;;;;;5055232;28;20082;-73
2021/07/06 00:58:00;;;;;;;8.82;6.53;;;25.00;72.90;;;;;;5055763;28;20516;-73
2021/07/06 01:00:27;;;;;;;6.85;6.15;;;25.00;72.90;;;;;;5055691;28;20033;-73
2021/07/06 01:02:53;;;;;;;7.35;6.30;;;25.00;73.10;;;;;;5055428;28;20048;-73
2021/07/06 01:05:24;;;;;;;8.88;6.68;;;25.00;73.10;;;;;;5056144;28;20056;-73
2021/07/06 01:07:50;;;;;;;7.32;6.68;;;25.00;73.10;;;;;;5055574;28;20032;-73
2021/07/06 01:10:17;;;;;;;7.18;6.47;;;25.00;73.00;;;;;;5055244;28;20078;-73
2021/07/06 01:12:44;;;;;;;7.75;6.68;;;25.00;73.10;;;;;;5055049;28;20037;-73
2021/07/06 01:15:13;;;;;;;10.07;7.43;;;25.00;73.20;;;;;;5054532;28;20112;-73
2021/07/06 01:17:40;;;;;;;7.22;6.20;;;25.00;73.20;;;;;;5054963;28;20032;-73
2021/07/06 01:20:08;;;;;;;8.75;6.60;;;24.90;73.20;;;;;;5055335;28;20139;-73
2021/07/06 01:22:34;;;;;;;8.48;6.30;;;24.90;73.30;;;;;;5055553;28;20469;-73
2021/07/06 01:25:02;;;;;;;6.97;6.25;;;24.90;73.30;;;;;;5055074;28;20056;-72
2021/07/06 01:27:28;;;;;;;7.20;6.35;;;24.90;73.50;;;;;;5055257;28;20534;-73
2021/07/06 01:29:54;;;;;;;6.72;5.95;;;24.90;73.50;;;;;;5054687;28;20103;-73
2021/07/06 01:32:20;;;;;;;6.80;6.13;;;24.90;73.50;;;;;;5055059;28;20115;-73
2021/07/06 01:34:45;;;;;;;7.68;6.45;;;24.80;73.50;;;;;;5054830;28;20132;-73
2021/07/06 01:37:16;;;;;;;6.78;6.15;;;24.80;73.60;;;;;;5054745;28;20028;-73
2021/07/06 01:39:42;;;;;;;7.68;6.30;;;24.80;73.80;;;;;;5054755;28;20057;-73
2021/07/06 01:42:07;;;;;;;9.32;6.43;;;24.70;73.80;;;;;;5054327;28;20060;-73
2021/07/06 01:44:33;;;;;;;8.65;6.35;;;24.70;73.90;;;;;;5054720;28;20029;-73
2021/07/06 01:46:59;;;;;;;6.72;6.00;;;24.70;74.00;;;;;;5054902;28;20083;-73
2021/07/06 01:49:24;;;;;;;7.05;5.80;;;24.70;74.10;;;;;;5054845;28;20026;-73
2021/07/06 01:51:50;;;;;;;8.32;5.75;;;24.70;74.10;;;;;;5054644;28;20061;-73
2021/07/06 01:54:16;;;;;;;8.18;5.70;;;24.70;74.10;;;;;;5054471;28;20048;-73
2021/07/06 01:56:44;;;;;;;9.18;6.50;;;24.70;74.10;;;;;;5054418;28;20467;-73
2021/07/06 01:59:10;;;;;;;8.27;6.88;;;24.60;74.00;;;;;;5054094;28;20075;-73
2021/07/06 02:01:38;;;;;;;7.35;6.65;;;24.70;74.10;;;;;;5054363;28;20035;-73
2021/07/06 02:04:05;;;;;;;9.88;6.35;;;24.70;74.20;;;;;;5054569;28;20094;-74
2021/07/06 02:06:32;;;;;;;7.80;6.35;;;24.60;74.20;;;;;;5054358;28;20491;-73
2021/07/06 02:08:58;;;;;;;7.65;6.63;;;24.60;74.30;;;;;;5070286;28;20075;-74
2021/07/06 02:11:23;;;;;;;9.10;7.10;;;24.60;74.30;;;;;;5054119;28;20024;-74
2021/07/06 02:13:50;;;;;;;7.18;6.47;;;24.60;74.40;;;;;;5053603;28;20079;-73
2021/07/06 02:16:17;;;;;;;9.23;6.28;;;24.60;74.50;;;;;;5053931;28;20029;-74
2021/07/06 02:18:43;;;;;;;7.45;6.35;;;24.60;74.50;;;;;;5053904;28;20166;-74
2021/07/06 02:21:09;;;;;;;7.70;6.25;;;24.50;74.50;;;;;;5054154;28;20057;-73
2021/07/06 02:23:35;;;;;;;10.00;6.63;;;24.60;74.60;;;;;;5052435;28;20035;-74
2021/07/06 02:26:06;;;;;;;7.45;6.40;;;24.50;74.60;;;;;;5053705;28;20122;-74
2021/07/06 02:28:32;;;;;;;7.65;6.22;;;24.50;74.60;;;;;;5053000;28;20040;-74
2021/07/06 02:30:59;;;;;;;7.85;6.28;;;24.60;74.70;;;;;;5069125;28;20025;-73
2021/07/06 02:33:31;;;;;;;8.82;6.78;;;24.60;74.60;;;;;;5053696;28;20048;-74
2021/07/06 02:35:57;;;;;;;7.72;6.40;;;24.60;74.60;;;;;;5054185;28;20032;-73
2021/07/06 02:38:23;;;;;;;8.20;6.43;;;24.60;74.60;;;;;;5053910;28;20378;-75
2021/07/06 02:40:48;;;;;;;8.00;5.88;;;24.60;74.60;;;;;;5053868;28;20029;-74
2021/07/06 02:43:14;;;;;;;9.27;6.63;;;24.60;74.50;;;;;;5069095;28;20463;-74
2021/07/06 02:45:40;;;;;;;11.02;6.68;;;24.70;74.60;;;;;;5054100;28;20098;-74
2021/07/06 02:48:10;;;;;;;8.40;6.50;;;24.60;74.60;;;;;;5053169;28;20463;-74
2021/07/06 02:50:42;;;;;;;9.45;6.82;;;24.60;74.60;;;;;;5053156;28;20032;-74
2021/07/06 02:53:08;;;;;;;7.63;6.43;;;24.70;74.70;;;;;;5053457;28;20029;-73
2021/07/06 02:55:34;;;;;;;8.15;6.25;;;24.70;74.80;;;;;;5053267;28;20037;-73
2021/07/06 02:58:00;;;;;;;7.45;6.60;;;24.70;74.70;;;;;;5053418;28;20029;-74
2021/07/06 03:00:29;;;;;;;7.75;7.00;;;24.60;74.60;;;;;;5053480;28;20057;-74
2021/07/06 03:02:57;;;;;;;9.13;6.13;;;24.60;74.70;;;;;;5053368;28;20037;-73
2021/07/06 03:05:25;;;;;;;17.38;6.72;;;24.60;74.80;;;;;;5053322;28;20024;-74
2021/07/06 03:07:52;;;;;;;8.23;6.18;;;24.60;74.70;;;;;;5053885;28;20021;-74
2021/07/06 03:10:20;;;;;;;8.10;7.30;;;24.70;74.80;;;;;;5053241;28;20025;-73
2021/07/06 03:12:47;;;;;;;7.70;6.63;;;24.70;74.60;;;;;;5053180;28;20097;-76
2021/07/06 03:15:15;;;;;;;7.10;6.38;;;24.70;74.60;;;;;;5053293;28;20033;-74
2021/07/06 03:17:42;;;;;;;10.38;6.75;;;24.70;74.50;;;;;;5053845;28;20037;-73
2021/07/06 03:20:10;;;;;;;7.82;7.03;;;24.60;74.50;;;;;;5053307;28;20029;-73
2021/07/06 03:22:36;;;;;;;7.72;6.88;;;24.70;74.90;;;;;;5053245;28;20479;-73
2021/07/06 03:25:04;;;;;;;8.90;6.80;;;24.70;74.60;;;;;;5053536;28;20104;-74
2021/07/06 03:27:29;;;;;;;9.43;6.95;;;24.70;74.60;;;;;;5053109;28;20032;-74
2021/07/06 03:29:55;;;;;;;9.82;6.65;;;24.70;74.60;;;;;;5052899;28;20021;-74
2021/07/06 03:32:21;;;;;;;8.70;6.82;;;24.70;74.60;;;;;;5053431;28;20094;-73
2021/07/06 03:34:46;;;;;;;9.18;6.90;;;24.80;74.60;;;;;;5053443;28;20029;-73
2021/07/06 03:37:12;;;;;;;11.50;7.30;;;24.80;74.50;;;;;;5052902;28;20021;-74
2021/07/06 03:39:39;;;;;;;13.20;7.35;;;24.80;74.60;;;;;;5056324;28;20105;-73
2021/07/06 03:42:09;;;;;;;10.13;7.82;;;24.80;74.50;;;;;;5057027;28;20112;-73
2021/07/06 03:44:35;;;;;;;12.30;7.95;;;24.80;74.50;;;;;;5072350;28;20033;-74
2021/07/06 03:47:03;;;;;;;11.52;7.47;;;24.80;74.30;;;;;;5056988;28;20098;-74
2021/07/06 03:49:28;;;;;;;10.35;8.45;;;24.90;74.30;;;;;;5057134;28;20075;-73
2021/07/06 03:51:54;;;;;;;9.15;8.18;;;24.90;74.30;;;;;;5056667;28;20021;-74
2021/07/06 03:54:20;;;;;;;11.23;7.63;;;24.90;74.20;;;;;;5056682;28;20452;-74
2021/07/06 03:56:46;;;;;;;9.32;7.68;;;24.90;74.20;;;;;;5056420;28;20037;-73
2021/07/06 03:59:11;;;;;;;10.38;7.85;;;24.80;74.20;;;;;;5056669;28;20151;-73
2021/07/06 04:01:37;;;;;;;14.48;8.23;;;24.90;74.30;;;;;;5056630;28;20022;-73
2021/07/06 04:04:04;;;;;;;10.63;7.53;;;25.00;74.30;;;;;;5056819;28;20064;-74
2021/07/06 04:06:30;;;;;;;8.68;7.68;;;25.00;74.30;;;;;;5056320;28;20021;-74
2021/07/06 04:08:56;;;;;;;8.90;8.10;;;25.10;74.20;;;;;;5056676;28;20033;-74
2021/07/06 04:11:22;;;;;;;11.07;7.85;;;25.10;74.00;;;;;;5056355;28;20032;-73
2021/07/06 04:13:47;;;;;;;8.70;7.32;;;25.20;73.90;;;;;;5056404;28;20025;-73
2021/07/06 04:16:14;;;;;;;12.98;7.60;;;25.30;73.70;;;;;;5056465;28;20057;-73
2021/07/06 04:18:40;;;;;;;8.30;7.07;;;25.20;73.40;;;;;;5056339;28;20091;-73
2021/07/06 04:21:07;;;;;;;9.65;7.80;;;25.20;73.30;;;;;;5056217;28;20029;-73
2021/07/06 04:23:34;;;;;;;14.00;7.70;;;25.20;73.40;;;;;;5054876;28;20460;-73
2021/07/06 04:26:00;;;;;;;8.35;7.53;;;25.20;73.40;;;;;;5056412;28;20028;-73
2021/07/06 04:28:26;;;;;;;10.55;7.60;;;25.30;73.50;;;;;;5056127;28;20459;-73
2021/07/06 04:30:51;;;;;;;8.50;7.60;;;25.30;73.50;;;;;;5071979;28;20033;-73
2021/07/06 04:33:17;;;;;;;10.40;8.25;;;25.40;73.50;;;;;;5055872;28;20477;-73
2021/07/06 04:35:43;;;;;;;8.48;7.60;;;25.40;73.30;;;;;;5054652;28;20032;-74
2021/07/06 04:38:09;;;;;;;8.30;7.35;;;25.50;73.30;;;;;;5055435;28;20029;-74
2021/07/06 04:40:35;;;;;;;9.65;8.48;;;25.50;73.10;;;;;;5056206;28;20059;-73
2021/07/06 04:43:01;;;;;;;9.00;7.93;;;25.60;73.00;;;;;;5056075;28;20037;-74
2021/07/06 04:45:27;;;;;;;9.45;7.40;;;25.70;72.90;;;;;;5055771;28;20017;-73
2021/07/06 04:47:53;;;;;;;9.60;8.60;;;25.70;72.80;;;;;;5071630;28;20029;-74
2021/07/06 04:50:19;;;;;;;8.93;7.88;;;25.70;72.70;;;;;;5054934;28;20028;-73
2021/07/06 04:52:47;;;;;;;11.70;7.93;;;25.80;72.70;;;;;;5055749;28;20486;-74
2021/07/06 04:55:15;;;;;;;9.40;7.97;;;25.90;72.50;;;;;;5056418;28;20463;-74
2021/07/06 04:57:41;;;;;;;8.10;7.30;;;26.00;72.40;;;;;;5055118;28;20510;-73
2021/07/06 05:00:09;;;;;;;11.85;7.95;;;26.10;72.10;;;;;;5055733;28;20033;-73
2021/07/06 05:02:35;;;;;;;11.20;8.40;;;26.20;71.80;;;;;;5055638;28;20033;-73
2021/07/06 05:05:04;;;;;;;8.93;7.70;;;26.20;71.30;;;;;;5055939;28;20032;-73
2021/07/06 05:07:30;;;;;;;9.43;7.68;;;26.30;71.10;;;;;;5055356;28;20025;-74
2021/07/06 05:09:55;;;;;;;12.20;8.50;;;26.40;70.90;;;;;;5055363;28;20017;-74
2021/07/06 05:12:21;;;;;;;12.25;8.40;;;26.50;70.80;;;;;;5054881;28;20090;-74
2021/07/06 05:14:47;;;;;;;12.60;8.73;;;26.60;70.40;;;;;;5055916;28;20029;-74
2021/07/06 05:17:13;;;;;;;10.45;7.97;;;26.80;70.20;;;;;;5055319;28;20029;-74
2021/07/06 05:19:38;;;;;;;11.63;8.15;;;26.80;69.80;;;;;;5055375;28;20040;-74
2021/07/06 05:22:04;;;;;;;10.00;8.35;;;26.90;69.60;;;;;;5053859;28;20021;-74
2021/07/06 05:24:30;;;;;;;13.88;9.00;;;26.90;69.40;;;;;;5055048;28;20032;-74
2021/07/06 05:26:55;;;;;;;10.70;8.77;;;26.90;69.30;;;;;;5055519;28;20025;-74
2021/07/06 05:29:21;;;;;;;10.00;8.75;;;27.00;69.30;;;;;;5054960;28;20028;-75
2021/07/06 05:31:47;;;;;;;9.73;8.30;;;27.10;69.10;;;;;;5054673;28;20021;-74
2021/07/06 05:34:13;;;;;;;12.82;9.30;;;27.10;68.90;;;;;;5054492;28;20040;-74
2021/07/06 05:36:38;;;;;;;12.00;8.70;;;27.10;68.90;;;;;;5054904;28;20072;-74
2021/07/06 05:39:06;;;;;;;9.40;7.78;;;27.20;68.90;;;;;;5054421;28;20032;-74
2021/07/06 05:41:33;;;;;;;11.35;8.40;;;27.30;68.70;;;;;;5054344;28;20029;-74
2021/07/06 05:43:59;;;;;;;11.80;9.25;;;27.30;68.50;;;;;;5054608;28;20033;-75
2021/07/06 05:46:28;;;;;;;10.90;8.85;;;27.40;68.50;;;;;;5054609;28;20032;-74
2021/07/06 05:48:55;;;;;;;10.07;8.80;;;27.40;68.40;;;;;;5054584;28;20103;-77
2021/07/06 05:51:21;;;;;;;12.73;9.85;;;27.60;68.30;;;;;;5054656;28;20032;-74
2021/07/06 05:53:49;;;;;;;10.70;9.32;;;27.70;67.90;;;;;;5052908;28;20032;-74
2021/07/06 05:56:20;;;;;;;14.35;8.63;;;27.80;67.90;;;;;;5054720;28;20045;-75
2021/07/06 05:58:47;;;;;;;10.70;8.93;;;27.80;67.70;;;;;;5054188;28;20388;-74
2021/07/06 06:01:13;;;;;;;14.70;9.45;;;27.80;67.50;;;;;;5053540;28;20467;-74
2021/07/06 06:03:38;;;;;;;11.60;8.80;;;27.90;67.70;;;;;;5069283;28;20077;-74
2021/07/06 06:06:04;;;;;;;14.07;10.13;;;28.00;67.70;;;;;;5054182;28;20029;-75
2021/07/06 06:08:30;;;;;;;12.60;9.90;;;28.10;67.40;;;;;;5053835;28;20025;-74
2021/07/06 06:10:56;;;;;;;13.63;9.60;;;28.10;67.20;;;;;;5053661;28;20044;-74
2021/07/06 06:13:22;;;;;;;10.95;9.60;;;28.20;66.90;;;;;;5054221;28;20040;-74
2021/07/06 06:15:48;;;;;;;13.35;10.20;;;28.20;66.60;;;;;;5053902;28;20029;-74
2021/07/06 06:18:13;;;;;;;13.45;10.40;;;28.30;66.50;;;;;;5053835;28;20025;-74
2021/07/06 06:20:39;;;;;;;12.40;10.10;;;28.40;66.40;;;;;;5053150;28;20368;-74
2021/07/06 06:23:05;;;;;;;13.20;10.07;;;28.50;66.20;;;;;;5053782;28;20032;-74
2021/07/06 06:25:31;;;;;;;12.75;10.20;;;28.70;65.90;;;;;;5052388;28;20029;-74
2021/07/06 06:27:58;;;;;;;11.55;9.88;;;28.80;65.60;;;;;;5053804;28;20029;-75
2021/07/06 06:30:23;;;;;;;12.48;9.95;;;28.90;65.20;;;;;;5053725;28;20032;-74
2021/07/06 06:32:51;;;;;;;14.13;9.63;;;28.90;65.00;;;;;;5053619;28;20040;-74
2021/07/06 06:35:17;;;;;;;10.38;9.25;;;28.90;64.80;;;;;;5053693;28;20107;-74
2021/07/06 06:37:42;;;;;;;12.75;8.70;;;29.00;64.80;;;;;;5053616;28;20063;-74
2021/07/06 06:40:09;;;;;;;10.82;9.00;;;29.10;64.60;;;;;;5053665;28;20036;-73
2021/07/06 06:42:36;;;;;;;10.20;9.02;;;29.10;64.40;;;;;;5053585;28;20040;-73
2021/07/06 06:45:04;;;;;;;12.30;9.27;;;29.10;64.30;;;;;;5054218;28;20414;-73
2021/07/06 06:47:30;;;;;;;12.52;10.50;;;29.20;64.30;;;;;;5069023;28;20059;-73
2021/07/06 06:49:56;;;;;;;17.40;10.43;;;29.20;64.20;;;;;;5053368;28;20075;-73
2021/07/06 06:52:22;;;;;;;13.20;9.90;;;29.20;64.10;;;;;;5053134;28;20459;-74
2021/07/06 06:54:48;;;;;;;14.98;10.90;;;29.30;64.10;;;;;;5053466;28;20033;-74
2021/07/06 06:57:14;;;;;;;12.52;10.20;;;29.40;63.90;;;;;;5053082;28;20028;-74
2021/07/06 06:59:39;;;;;;;14.50;11.05;;;29.40;63.70;;;;;;5053618;28;20028;-73
2021/07/06 07:02:17;;;;;;;12.95;10.05;;;29.50;63.60;;;;;;5053229;28;20118;-74
2021/07/06 07:04:51;;;;;;;12.77;9.55;;;29.60;63.50;;;;;;5053416;28;20086;-74
2021/07/06 07:07:19;;;;;;;12.63;9.95;;;29.60;63.30;;;;;;5052192;28;20029;-74
2021/07/06 07:09:45;;;;;;;12.68;9.85;;;29.60;63.30;;;;;;5068711;28;20597;-74
2021/07/06 07:12:11;;;;;;;11.43;9.15;;;29.70;63.20;;;;;;5053819;28;20108;-74
2021/07/06 07:14:38;;;;;;;15.32;9.90;;;29.80;63.00;;;;;;5056740;28;20391;-73
2021/07/06 07:17:04;;;;;;;12.60;10.05;;;29.90;62.80;;;;;;5057411;28;20029;-73
2021/07/06 07:19:30;;;;;;;13.50;10.45;;;30.00;62.40;;;;;;5057163;28;20139;-73
2021/07/06 07:21:56;;;;;;;14.27;10.30;;;30.10;62.20;;;;;;5057228;28;20029;-74
2021/07/06 07:24:22;;;;;;;10.35;9.13;;;30.10;61.90;;;;;;5057781;28;20028;-73
2021/07/06 07:26:49;;;;;;;11.00;9.75;;;30.10;61.90;;;;;;5057047;28;20108;-74
2021/07/06 07:29:15;;;;;;;13.55;9.98;;;30.20;62.00;;;;;;5057530;28;20025;-75
2021/07/06 07:31:41;;;;;;;10.32;9.23;;;30.20;61.90;;;;;;5057001;28;20383;-73
2021/07/06 07:34:07;;;;;;;12.07;9.13;;;30.30;61.80;;;;;;5056867;28;20037;-74
2021/07/06 07:36:33;;;;;;;11.63;9.30;;;30.40;61.80;;;;;;5056765;28;20523;-74
2021/07/06 07:38:59;;;;;;;11.27;9.07;;;30.50;61.70;;;;;;5057036;28;20020;-75
2021/07/06 07:41:25;;;;;;;10.93;8.68;;;30.60;61.50;;;;;;5056702;28;20024;-74
2021/07/06 07:43:54;;;;;;;12.15;9.48;;;30.70;61.10;;;;;;5057263;28;20037;-74
2021/07/06 07:46:21;;;;;;;13.88;9.73;;;30.80;61.10;;;;;;5056686;28;20429;-74
2021/07/06 07:48:47;;;;;;;14.00;8.73;;;30.90;61.30;;;;;;5056751;28;20029;-74
2021/07/06 07:51:13;;;;;;;17.27;10.35;;;31.00;61.20;;;;;;5056637;28;20108;-74
2021/07/06 07:53:38;;;;;;;11.63;9.77;;;31.10;60.70;;;;;;5057337;28;20029;-75
2021/07/06 07:56:05;;;;;;;17.33;9.57;;;31.10;60.50;;;;;;5056915;28;20021;-74
2021/07/06 07:58:30;;;;;;;10.07;9.00;;;31.20;60.30;;;;;;5056611;28;20029;-74
2021/07/06 08:00:56;;;;;;;10.98;8.98;;;31.20;60.00;;;;;;5056619;28;20447;-74
2021/07/06 08:03:22;;;;;;;11.13;8.90;;;31.20;60.00;;;;;;5057230;28;20107;-74
2021/07/06 08:05:48;;;;;;;13.73;9.10;;;31.20;60.20;;;;;;5056550;28;20025;-76
2021/07/06 08:08:14;;;;;;;10.82;8.80;;;31.20;59.90;;;;;;5056472;28;20017;-74
2021/07/06 08:10:40;;;;;;;11.73;8.13;;;31.30;59.80;;;;;;5056313;28;20376;-74
2021/07/06 08:13:06;;;;;;;13.20;7.72;;;31.30;59.80;;;;;;5055795;28;20040;-74
2021/07/06 08:15:32;;;;;;;9.98;8.20;;;31.30;59.90;;;;;;5056262;28;20569;-74
2021/07/06 08:17:58;;;;;;;9.93;7.47;;;31.40;59.90;;;;;;5056248;28;20031;-74
2021/07/06 08:20:23;;;;;;;10.68;7.43;;;31.30;59.90;;;;;;5056299;28;20047;-75
2021/07/06 08:22:51;;;;;;;10.77;7.63;;;31.30;60.50;;;;;;5056138;28;20436;-74
2021/07/06 08:25:17;;;;;;;8.15;7.32;;;31.30;59.90;;;;;;5055572;28;20091;-75
2021/07/06 08:27:42;;;;;;;9.10;7.07;;;31.40;60.00;;;;;;5056444;28;20029;-74
2021/07/06 08:30:09;;;;;;;11.30;7.10;;;31.40;60.00;;;;;;5056637;28;20025;-75
2021/07/06 08:32:34;;;;;;;7.70;7.00;;;31.50;59.70;;;;;;5056231;28;20028;-73
2021/07/06 08:35:00;;;;;;;10.43;7.60;;;31.60;59.10;;;;;;5054446;28;20144;-72
2021/07/06 08:37:26;;;;;;;10.52;7.78;;;31.70;58.70;;;;;;5056692;28;20036;-74
2021/07/06 08:39:52;;;;;;;8.65;6.80;;;31.80;58.20;;;;;;5055934;28;20029;-74
2021/07/06 08:42:19;;;;;;;12.02;6.78;;;31.90;57.80;;;;;;5055765;28;20036;-73
2021/07/06 08:44:45;;;;;;;9.45;6.50;;;32.00;57.70;;;;;;5055861;28;20108;-73
2021/07/06 08:47:16;;;;;;;7.65;5.70;;;32.10;57.50;;;;;;5055859;28;20475;-74
2021/07/06 08:49:44;;;;;;;10.15;5.57;;;32.30;57.30;;;;;;5056309;28;20044;-73
2021/07/06 08:52:11;;;;;;;7.60;5.43;;;32.40;57.00;;;;;;5055836;28;20451;-73
2021/07/06 08:54:37;;;;;;;8.95;5.40;;;32.50;56.70;;;;;;5055428;28;20036;-74
2021/07/06 08:57:05;;;;;;;8.35;5.35;;;32.60;57.10;;;;;;5056028;28;20033;-76
2021/07/06 08:59:31;;;;;;;8.95;5.70;;;32.80;56.20;;;;;;5071084;28;20045;-73
2021/07/06 09:01:56;;;;;;;9.55;5.95;;;32.90;55.90;;;;;;5055371;28;20029;-74
2021/07/06 09:04:23;;;;;;;9.65;5.75;;;33.20;55.80;;;;;;5055748;28;20471;-72
2021/07/06 09:06:57;;;;;;;9.75;5.43;;;33.30;55.50;;;;;;5055277;28;20466;-73
2021/07/06 09:09:26;;;;;;;13.15;5.47;;;33.40;54.90;;;;;;5055308;28;20535;-73
2021/07/06 09:11:54;;;;;;;7.85;4.90;;;33.60;54.70;;;;;;5055125;28;20037;-74
2021/07/06 09:14:25;;;;;;;9.90;5.45;;;33.70;54.50;;;;;;5055150;28;20422;-74
2021/07/06 09:16:51;;;;;;;7.45;5.53;;;33.90;54.40;;;;;;5055751;28;20040;-74
2021/07/06 09:19:21;;;;;;;9.18;5.50;;;34.00;53.80;;;;;;5055185;28;20028;-74
2021/07/06 09:21:47;;;;;;;10.95;5.72;;;34.20;53.50;;;;;;5055309;28;20032;-73
2021/07/06 09:24:26;;;;;;;9.10;5.20;;;34.30;53.10;;;;;;5055625;28;20033;-74
2021/07/06 09:26:52;;;;;;;8.00;5.75;;;34.50;53.00;;;;;;5055084;28;20029;-75
2021/07/06 09:29:24;;;;;;;6.20;5.55;;;34.60;52.90;;;;;;5070425;28;20025;-75
2021/07/06 09:31:51;;;;;;;7.78;4.85;;;34.80;52.70;;;;;;5055477;28;20336;-74
2021/07/06 09:34:17;;;;;;;8.07;4.85;;;35.10;52.50;;;;;;5053339;28;20119;-74
2021/07/06 09:36:49;;;;;;;6.13;4.47;;;35.30;51.90;;;;;;5054466;28;20108;-74
2021/07/06 09:39:21;;;;;;;5.93;4.70;;;35.50;51.60;;;;;;5054859;28;20471;-75
2021/07/06 09:41:55;;;;;;;5.50;5.00;;;35.70;51.30;;;;;;5053366;28;20078;-74
2021/07/06 09:44:35;;;;;;;6.95;5.20;;;35.60;51.20;;;;;;5054228;28;20538;-74
2021/07/06 09:47:05;;;;;;;5.88;4.68;;;35.70;51.30;;;;;;5054584;28;20033;-74
2021/07/06 09:49:33;;;;;;;5.50;4.60;;;35.80;51.00;;;;;;5055064;28;20434;-75
2021/07/06 09:52:13;;;;;;;5.90;4.72;;;36.20;50.80;;;;;;5054465;28;20040;-75
2021/07/06 09:54:49;;;;;;;5.82;4.88;;;36.40;50.50;;;;;;5054630;28;20475;-74
2021/07/06 09:57:32;;;;;;;7.75;4.72;;;36.80;50.00;;;;;;5054455;28;20029;-75
2021/07/06 10:00:07;;;;;;;8.23;4.47;;;37.10;49.50;;;;;;5054848;28;20036;-74
2021/07/06 10:02:34;;;;;;;5.47;4.68;;;37.20;49.60;;;;;;5053786;28;20470;-74
2021/07/06 10:05:04;;;;;;;5.07;4.68;;;37.40;49.30;;;;;;5069969;28;20033;-73
2021/07/06 10:07:31;;;;;;;7.88;4.15;;;37.60;48.90;;;;;;5054090;28;20026;-74
2021/07/06 10:09:57;;;;;;;8.68;4.70;;;37.80;48.60;;;;;;5054228;28;20108;-74
2021/07/06 10:12:24;;;;;;;5.95;4.43;;;37.90;48.40;;;;;;5054036;28;20035;-76
2021/07/06 10:14:52;;;;;;;5.93;3.85;;;38.10;48.30;;;;;;5054171;28;20032;-74
2021/07/06 10:17:18;;;;;;;4.85;3.78;;;38.40;48.00;;;;;;5053975;28;20060;-74
2021/07/06 10:19:45;;;;;;;4.80;3.53;;;38.50;47.50;;;;;;5053589;28;20107;-74
2021/07/06 10:22:13;;;;;;;5.75;3.30;;;38.50;47.20;;;;;;5054224;28;20029;-73
2021/07/06 10:24:41;;;;;;;5.95;3.42;;;38.50;46.80;;;;;;5054161;28;20489;-74
2021/07/06 10:27:12;;;;;;;3.88;3.20;;;38.60;46.40;;;;;;5054092;28;20025;-75
2021/07/06 10:29:41;;;;;;;4.40;3.20;;;38.70;46.00;;;;;;5053560;28;20108;-74
2021/07/06 10:32:07;;;;;;;3.58;3.15;;;38.70;46.00;;;;;;5053816;28;20033;-75
2021/07/06 10:34:43;;;;;;;5.63;3.17;;;38.70;45.80;;;;;;5053978;28;20033;-74
2021/07/06 10:37:29;;;;;;;3.58;3.05;;;38.80;45.60;;;;;;5070103;28;20409;-75
2021/07/06 10:39:55;;;;;;;6.00;3.28;;;39.00;45.40;;;;;;5069084;28;20470;-75
2021/07/06 10:42:38;;;;;;;6.10;3.80;;;39.10;45.30;;;;;;5053311;28;20035;-74
2021/07/06 10:45:30;;;;;;;;;;;39.20;45.80;;;;;;5054070;28;20467;-75
2021/07/06 10:47:56;;;;;;;3.97;3.10;;;39.20;45.50;;;;;;5052281;28;19955;-75
2021/07/06 10:50:43;;;;;;;4.05;3.30;;;39.30;45.10;;;;;;5053422;28;20423;-75
2021/07/06 10:53:16;;;;;;;6.38;3.40;;;39.30;45.00;;;;;;5053642;28;20422;-74
2021/07/06 10:55:43;;;;;;;5.18;3.22;;;39.30;45.30;;;;;;5053910;28;20045;-74
2021/07/06 10:58:09;;;;;;;4.88;3.20;;;39.50;45.10;;;;;;5053432;28;20493;-74
2021/07/06 11:00:45;;;;;;;7.13;3.55;;;39.80;44.80;;;;;;5053914;28;20021;-75
2021/07/06 11:03:15;;;;;;;5.18;3.13;;;40.10;44.60;;;;;;5053655;28;20101;-75
2021/07/06 11:05:41;;;;;;;3.72;2.83;;;40.20;44.50;;;;;;5053739;28;20032;-75
2021/07/06 11:08:07;;;;;;;4.65;3.05;;;40.30;44.00;;;;;;5053360;28;20025;-74
2021/07/06 11:10:36;;;;;;;5.72;3.30;;;40.50;43.70;;;;;;5053688;28;20021;-75
2021/07/06 11:13:12;;;;;;;5.20;3.10;;;40.80;43.20;;;;;;5068988;28;20040;-75
2021/07/06 11:15:38;;;;;;;5.75;3.25;;;40.90;43.00;;;;;;5053284;28;20049;-75
2021/07/06 11:18:08;;;;;;;4.00;2.97;;;40.60;43.20;;;;;;5053604;28;20068;-74
2021/07/06 11:20:39;;;;;;;4.80;2.92;;;40.70;43.20;;;;;;5052491;28;20049;-75
2021/07/06 11:23:08;;;;;;;5.72;3.15;;;40.90;42.70;;;;;;5053285;28;20037;-74
2021/07/06 11:25:34;;;;;;;3.55;3.28;;;40.90;42.50;;;;;;5068742;28;20025;-75
2021/07/06 11:28:03;;;;;;;5.90;3.10;;;41.10;42.40;;;;;;5053365;28;20368;-75
2021/07/06 11:30:46;;;;;;;3.38;3.10;;;41.20;42.00;;;;;;5053250;28;20029;-74
2021/07/06 11:33:17;;;;;;;5.63;3.53;;;40.90;42.00;;;;;;5053443;28;20033;-75
2021/07/06 11:35:45;;;;;;;4.00;3.30;;;40.10;42.70;;;;;;5053017;28;20044;-74
2021/07/06 11:38:14;;;;;;;3.53;3.10;;;39.40;44.00;;;;;;5053101;28;20087;-75
2021/07/06 11:40:42;;;;;;;4.32;3.00;;;38.90;44.10;;;;;;5053188;28;20429;-73
2021/07/06 11:43:09;;;;;;;4.72;3.40;;;38.40;44.30;;;;;;5053160;28;20025;-74
2021/07/06 11:45:37;;;;;;;5.25;3.60;;;37.90;44.60;;;;;;5053189;28;20104;-74
2021/07/06 11:48:14;;;;;;;7.70;3.50;;;37.50;45.20;;;;;;5068468;28;20029;-73
2021/07/06 11:50:43;;;;;;;3.95;3.47;;;37.70;45.60;;;;;;5053169;28;20120;-75
2021/07/06 11:53:09;;;;;;;7.63;3.47;;;38.00;45.50;;;;;;5053488;28;20033;-75
2021/07/06 11:55:37;;;;;;;3.80;3.30;;;38.00;45.20;;;;;;5052917;28;20082;-75
2021/07/06 11:58:05;;;;;;;5.55;3.80;;;37.70;45.20;;;;;;5053108;28;20021;-75
2021/07/06 12:00:34;;;;;;;6.57;3.30;;;37.10;45.50;;;;;;5055567;28;20485;-76
2021/07/06 12:03:17;;;;;;;4.35;3.28;;;37.40;45.80;;;;;;5055471;28;20047;-75
2021/07/06 12:05:43;;;;;;;3.45;3.08;;;37.90;45.40;;;;;;5056456;28;20108;-75
2021/07/06 12:08:13;;;;;;;6.10;3.33;;;37.90;45.10;;;;;;5056645;28;20028;-75
2021/07/06 12:11:10;;;;;;;4.72;3.50;;;37.80;45.50;;;;;;5072225;28;20375;-74
2021/07/06 12:13:37;;;;;;;7.57;3.92;;;37.90;45.80;;;;;;5055819;28;20085;-74
2021/07/06 12:16:06;;;;;;;7.35;5.72;;;37.60;45.70;;;;;;5054891;28;20029;-74
2021/07/06 12:18:34;;;;;;;4.57;4.18;;;37.20;46.10;;;;;;5056267;28;20112;-75
2021/07/06 12:21:07;;;;;;;8.20;4.22;;;36.90;46.50;;;;;;5055649;28;20029;-75
2021/07/06 12:23:44;;;;;;;5.38;3.75;;;37.40;46.30;;;;;;5056164;28;20031;-75
2021/07/06 12:26:11;;;;;;;7.72;3.85;;;38.20;45.60;;;;;;5056031;28;20033;-76
2021/07/06 12:28:40;;;;;;;3.70;3.22;;;38.20;44.90;;;;;;5055896;28;20053;-76
2021/07/06 12:31:40;;;;;;;4.55;3.20;;;37.80;45.20;;;;;;5056158;28;20056;-74
2021/07/06 12:34:11;;;;;;;8.60;3.70;;;37.90;45.30;;;;;;5054852;28;20387;-74
2021/07/06 12:36:59;;;;;;;5.88;3.00;;;38.70;44.90;;;;;;5055631;28;20585;-76
2021/07/06 12:39:26;;;;;;;6.60;3.50;;;39.10;44.60;;;;;;5056428;28;20032;-76
2021/07/06 12:42:01;;;;;;;8.95;3.35;;;38.90;43.90;;;;;;5055768;28;20029;-75
2021/07/06 12:44:45;;;;;;;4.03;3.28;;;38.10;44.30;;;;;;5054847;28;20025;-74
2021/07/06 12:47:30;;;;;;;8.05;3.47;;;37.30;45.30;;;;;;5056101;28;20463;-75